sensor_id;sensor_type;location;lat;lon;timestamp;P1;durP1;ratioP1;P2;durP2;ratioP2
10489;SDS011;35569;48.402;10.670;2023-12-28T00:00:11;9.97;;;8.87;;
10489;SDS011;35569;48.402;10.670;2023-12-28T00:00:44;11.00;;;9.90;;
10489;SDS011;35569;48.402;10.670;2023-12-28T00:01:17;12.03;;;10.73;;
10489;SDS011;35569;48.402;10.670;2023-12-28T00:01:50;9.50;;;8.80;;
10489;SDS011;35569;48.402;10.670;2023-12-28T00:02:25;9.33;;;8.53;;
10489;SDS011;35569;48.402;10.670;2023-12-28T00:02:57;9.17;;;8.33;;
10489;SDS011;35569;48.402;10.670;2023-12-28T00:03:30;7.53;;;6.97;;
10489;SDS011;35569;48.402;10.670;2023-12-28T00:04:02;7.43;;;6.93;;
10489;SDS011;35569;48.402;10.670;2023-12-28T00:04:38;8.80;;;7.97;;
10489;SDS011;35569;48.402;10.670;2023-12-28T00:05:10;7.70;;;7.10;;
10489;SDS011;35569;48.402;10.670;2023-12-28T00:05:43;7.63;;;6.93;;
10489;SDS011;35569;48.402;10.670;2023-12-28T00:06:16;7.07;;;6.67;;
10489;SDS011;35569;48.402;10.670;2023-12-28T00:06:51;6.57;;;6.17;;
10489;SDS011;35569;48.402;10.670;2023-12-28T00:07:23;5.93;;;5.53;;
10489;SDS011;35569;48.402;10.670;2023-12-28T00:07:56;8.23;;;7.70;;
10489;SDS011;35569;48.402;10.670;2023-12-28T00:08:30;7.53;;;7.03;;
10489;SDS011;35569;48.402;10.670;2023-12-28T00:09:05;6.10;;;5.60;;
10489;SDS011;35569;48.402;10.670;2023-12-28T00:09:42;5.33;;;5.03;;
10489;SDS011;35569;48.402;10.670;2023-12-28T00:10:15;6.50;;;6.00;;
10489;SDS011;35569;48.402;10.670;2023-12-28T00:10:50;6.87;;;6.47;;
10489;SDS011;35569;48.402;10.670;2023-12-28T00:11:26;7.03;;;6.53;;
10489;SDS011;35569;48.402;10.670;2023-12-28T00:11:58;4.10;;;4.00;;
10489;SDS011;35569;48.402;10.670;2023-12-28T00:12:31;7.37;;;6.87;;
10489;SDS011;35569;48.402;10.670;2023-12-28T00:13:03;7.60;;;6.90;;
10489;SDS011;35569;48.402;10.670;2023-12-28T00:13:39;7.87;;;7.20;;
10489;SDS011;35569;48.402;10.670;2023-12-28T00:14:11;7.00;;;6.57;;
10489;SDS011;35569;48.402;10.670;2023-12-28T00:14:44;7.20;;;6.77;;
10489;SDS011;35569;48.402;10.670;2023-12-28T00:15:19;7.50;;;6.90;;
10489;SDS011;35569;48.402;10.670;2023-12-28T00:15:51;7.60;;;6.90;;
10489;SDS011;35569;48.402;10.670;2023-12-28T00:16:24;7.10;;;6.60;;
10489;SDS011;35569;48.402;10.670;2023-12-28T00:16:56;6.43;;;6.00;;
10489;SDS011;35569;48.402;10.670;2023-12-28T00:17:31;6.10;;;5.80;;
10489;SDS011;35569;48.402;10.670;2023-12-28T00:18:04;5.17;;;4.97;;
10489;SDS011;35569;48.402;10.670;2023-12-28T00:18:36;6.10;;;5.70;;
10489;SDS011;35569;48.402;10.670;2023-12-28T00:19:09;5.50;;;5.10;;
10489;SDS011;35569;48.402;10.670;2023-12-28T00:19:44;5.67;;;5.27;;
10489;SDS011;35569;48.402;10.670;2023-12-28T00:20:17;5.80;;;5.50;;
10489;SDS011;35569;48.402;10.670;2023-12-28T00:20:49;5.70;;;5.40;;
10489;SDS011;35569;48.402;10.670;2023-12-28T00:21:22;6.20;;;5.80;;
10489;SDS011;35569;48.402;10.670;2023-12-28T00:21:54;5.20;;;4.90;;
10489;SDS011;35569;48.402;10.670;2023-12-28T00:22:29;5.00;;;4.80;;
10489;SDS011;35569;48.402;10.670;2023-12-28T00:23:02;4.80;;;4.57;;
10489;SDS011;35569;48.402;10.670;2023-12-28T00:23:34;5.13;;;4.90;;
10489;SDS011;35569;48.402;10.670;2023-12-28T00:24:09;5.50;;;5.10;;
10489;SDS011;35569;48.402;10.670;2023-12-28T00:24:42;4.07;;;3.97;;
10489;SDS011;35569;48.402;10.670;2023-12-28T00:25:15;4.47;;;4.23;;
10489;SDS011;35569;48.402;10.670;2023-12-28T00:25:47;5.07;;;4.77;;
10489;SDS011;35569;48.402;10.670;2023-12-28T00:26:22;4.30;;;4.10;;
10489;SDS011;35569;48.402;10.670;2023-12-28T00:27:08;4.93;;;4.70;;
10489;SDS011;35569;48.402;10.670;2023-12-28T00:27:41;4.57;;;4.37;;
10489;SDS011;35569;48.402;10.670;2023-12-28T00:28:17;4.03;;;3.87;;
10489;SDS011;35569;48.402;10.670;2023-12-28T00:28:50;4.30;;;4.00;;
10489;SDS011;35569;48.402;10.670;2023-12-28T00:29:23;4.50;;;4.20;;
10489;SDS011;35569;48.402;10.670;2023-12-28T00:30:00;4.23;;;4.03;;
10489;SDS011;35569;48.402;10.670;2023-12-28T00:30:34;4.00;;;3.80;;
10489;SDS011;35569;48.402;10.670;2023-12-28T00:31:07;4.13;;;4.00;;
10489;SDS011;35569;48.402;10.670;2023-12-28T00:31:41;3.17;;;3.07;;
10489;SDS011;35569;48.402;10.670;2023-12-28T00:32:16;4.30;;;4.10;;
10489;SDS011;35569;48.402;10.670;2023-12-28T00:32:49;3.80;;;3.70;;
10489;SDS011;35569;48.402;10.670;2023-12-28T00:33:22;3.00;;;2.90;;
10489;SDS011;35569;48.402;10.670;2023-12-28T00:33:54;3.63;;;3.53;;
10489;SDS011;35569;48.402;10.670;2023-12-28T00:34:29;3.40;;;3.30;;
10489;SDS011;35569;48.402;10.670;2023-12-28T00:35:02;3.07;;;2.97;;
10489;SDS011;35569;48.402;10.670;2023-12-28T00:35:37;3.50;;;3.40;;
10489;SDS011;35569;48.402;10.670;2023-12-28T00:36:10;3.50;;;3.33;;
10489;SDS011;35569;48.402;10.670;2023-12-28T00:36:45;3.50;;;3.40;;
10489;SDS011;35569;48.402;10.670;2023-12-28T00:37:17;3.40;;;3.30;;
10489;SDS011;35569;48.402;10.670;2023-12-28T00:37:50;3.40;;;3.30;;
10489;SDS011;35569;48.402;10.670;2023-12-28T00:38:22;3.40;;;3.30;;
10489;SDS011;35569;48.402;10.670;2023-12-28T00:38:57;3.00;;;2.90;;
10489;SDS011;35569;48.402;10.670;2023-12-28T00:39:30;3.20;;;3.10;;
10489;SDS011;35569;48.402;10.670;2023-12-28T00:40:03;3.70;;;3.60;;
10489;SDS011;35569;48.402;10.670;2023-12-28T00:40:37;3.13;;;3.03;;
10489;SDS011;35569;48.402;10.670;2023-12-28T00:41:12;3.40;;;3.30;;
10489;SDS011;35569;48.402;10.670;2023-12-28T00:41:44;2.90;;;2.80;;
10489;SDS011;35569;48.402;10.670;2023-12-28T00:42:20;3.30;;;3.20;;
10489;SDS011;35569;48.402;10.670;2023-12-28T00:42:52;3.30;;;3.20;;
10489;SDS011;35569;48.402;10.670;2023-12-28T00:43:28;3.10;;;3.00;;
10489;SDS011;35569;48.402;10.670;2023-12-28T00:44:00;3.63;;;3.43;;
10489;SDS011;35569;48.402;10.670;2023-12-28T00:44:34;2.73;;;2.63;;
10489;SDS011;35569;48.402;10.670;2023-12-28T00:45:06;2.80;;;2.70;;
10489;SDS011;35569;48.402;10.670;2023-12-28T00:45:42;2.83;;;2.73;;
10489;SDS011;35569;48.402;10.670;2023-12-28T00:46:14;3.93;;;3.73;;
10489;SDS011;35569;48.402;10.670;2023-12-28T00:46:47;3.90;;;3.70;;
10489;SDS011;35569;48.402;10.670;2023-12-28T00:47:22;3.20;;;3.03;;
10489;SDS011;35569;48.402;10.670;2023-12-28T00:47:54;3.10;;;2.80;;
10489;SDS011;35569;48.402;10.670;2023-12-28T00:48:29;3.20;;;3.00;;
10489;SDS011;35569;48.402;10.670;2023-12-28T00:49:02;3.30;;;3.20;;
10489;SDS011;35569;48.402;10.670;2023-12-28T00:49:38;3.30;;;3.20;;
10489;SDS011;35569;48.402;10.670;2023-12-28T00:50:11;4.00;;;3.30;;
10489;SDS011;35569;48.402;10.670;2023-12-28T00:50:43;2.70;;;2.60;;
10489;SDS011;35569;48.402;10.670;2023-12-28T00:51:16;2.60;;;2.60;;
10489;SDS011;35569;48.402;10.670;2023-12-28T00:51:52;2.90;;;2.80;;
10489;SDS011;35569;48.402;10.670;2023-12-28T00:52:25;3.30;;;3.20;;
10489;SDS011;35569;48.402;10.670;2023-12-28T00:52:57;2.90;;;2.80;;
10489;SDS011;35569;48.402;10.670;2023-12-28T00:53:30;3.13;;;3.00;;
10489;SDS011;35569;48.402;10.670;2023-12-28T00:54:05;2.80;;;2.70;;
10489;SDS011;35569;48.402;10.670;2023-12-28T00:54:37;2.73;;;2.63;;
10489;SDS011;35569;48.402;10.670;2023-12-28T00:55:10;3.83;;;2.77;;
10489;SDS011;35569;48.402;10.670;2023-12-28T00:55:43;2.67;;;2.57;;
10489;SDS011;35569;48.402;10.670;2023-12-28T00:56:18;3.00;;;2.80;;
10489;SDS011;35569;48.402;10.670;2023-12-28T00:56:52;2.77;;;2.67;;
10489;SDS011;35569;48.402;10.670;2023-12-28T00:57:27;2.30;;;2.30;;
10489;SDS011;35569;48.402;10.670;2023-12-28T00:58:02;2.63;;;2.53;;
10489;SDS011;35569;48.402;10.670;2023-12-28T00:58:38;2.77;;;2.67;;
10489;SDS011;35569;48.402;10.670;2023-12-28T00:59:11;3.20;;;3.00;;
10489;SDS011;35569;48.402;10.670;2023-12-28T00:59:43;2.97;;;2.87;;
10489;SDS011;35569;48.402;10.670;2023-12-28T01:00:18;2.73;;;2.63;;
10489;SDS011;35569;48.402;10.670;2023-12-28T01:00:51;2.60;;;2.50;;
10489;SDS011;35569;48.402;10.670;2023-12-28T01:01:27;2.90;;;2.80;;
10489;SDS011;35569;48.402;10.670;2023-12-28T01:02:03;3.10;;;2.97;;
10489;SDS011;35569;48.402;10.670;2023-12-28T01:02:36;3.00;;;2.90;;
10489;SDS011;35569;48.402;10.670;2023-12-28T01:03:08;2.70;;;2.60;;
10489;SDS011;35569;48.402;10.670;2023-12-28T01:03:41;3.03;;;2.93;;
10489;SDS011;35569;48.402;10.670;2023-12-28T01:04:17;2.60;;;2.50;;
10489;SDS011;35569;48.402;10.670;2023-12-28T01:04:49;2.80;;;2.70;;
10489;SDS011;35569;48.402;10.670;2023-12-28T01:05:23;2.77;;;2.57;;
10489;SDS011;35569;48.402;10.670;2023-12-28T01:06:00;3.07;;;2.87;;
10489;SDS011;35569;48.402;10.670;2023-12-28T01:06:33;4.03;;;2.87;;
10489;SDS011;35569;48.402;10.670;2023-12-28T01:07:06;2.80;;;2.60;;
10489;SDS011;35569;48.402;10.670;2023-12-28T01:07:38;2.73;;;2.63;;
10489;SDS011;35569;48.402;10.670;2023-12-28T01:08:11;2.93;;;2.73;;
10489;SDS011;35569;48.402;10.670;2023-12-28T01:08:46;2.80;;;2.70;;
10489;SDS011;35569;48.402;10.670;2023-12-28T01:09:18;2.40;;;2.30;;
10489;SDS011;35569;48.402;10.670;2023-12-28T01:09:51;2.40;;;2.40;;
10489;SDS011;35569;48.402;10.670;2023-12-28T01:10:23;2.53;;;2.43;;
10489;SDS011;35569;48.402;10.670;2023-12-28T01:10:58;2.67;;;2.57;;
10489;SDS011;35569;48.402;10.670;2023-12-28T01:11:31;2.10;;;2.10;;
10489;SDS011;35569;48.402;10.670;2023-12-28T01:12:04;2.90;;;2.67;;
10489;SDS011;35569;48.402;10.670;2023-12-28T01:12:42;2.73;;;2.63;;
10489;SDS011;35569;48.402;10.670;2023-12-28T01:13:15;2.87;;;2.77;;
10489;SDS011;35569;48.402;10.670;2023-12-28T01:13:48;2.40;;;2.30;;
10489;SDS011;35569;48.402;10.670;2023-12-28T01:14:20;2.50;;;2.40;;
10489;SDS011;35569;48.402;10.670;2023-12-28T01:14:55;2.30;;;2.20;;
10489;SDS011;35569;48.402;10.670;2023-12-28T01:15:28;3.17;;;2.97;;
10489;SDS011;35569;48.402;10.670;2023-12-28T01:16:00;2.40;;;2.30;;
10489;SDS011;35569;48.402;10.670;2023-12-28T01:16:33;2.87;;;2.77;;
10489;SDS011;35569;48.402;10.670;2023-12-28T01:17:05;2.57;;;2.47;;
10489;SDS011;35569;48.402;10.670;2023-12-28T01:17:41;2.53;;;2.43;;
10489;SDS011;35569;48.402;10.670;2023-12-28T01:18:13;3.10;;;3.00;;
10489;SDS011;35569;48.402;10.670;2023-12-28T01:18:46;2.30;;;2.20;;
10489;SDS011;35569;48.402;10.670;2023-12-28T01:19:21;2.60;;;2.50;;
10489;SDS011;35569;48.402;10.670;2023-12-28T01:19:55;2.43;;;2.33;;
10489;SDS011;35569;48.402;10.670;2023-12-28T01:20:27;2.73;;;2.60;;
10489;SDS011;35569;48.402;10.670;2023-12-28T01:21:00;2.20;;;2.20;;
10489;SDS011;35569;48.402;10.670;2023-12-28T01:21:32;2.67;;;2.57;;
10489;SDS011;35569;48.402;10.670;2023-12-28T01:22:07;2.63;;;2.53;;
10489;SDS011;35569;48.402;10.670;2023-12-28T01:22:40;2.40;;;2.30;;
10489;SDS011;35569;48.402;10.670;2023-12-28T01:23:13;2.70;;;2.60;;
10489;SDS011;35569;48.402;10.670;2023-12-28T01:23:45;2.47;;;2.37;;
10489;SDS011;35569;48.402;10.670;2023-12-28T01:24:21;2.80;;;2.70;;
10489;SDS011;35569;48.402;10.670;2023-12-28T01:24:53;2.50;;;2.40;;
10489;SDS011;35569;48.402;10.670;2023-12-28T01:25:26;2.47;;;2.37;;
10489;SDS011;35569;48.402;10.670;2023-12-28T01:25:58;2.40;;;2.30;;
10489;SDS011;35569;48.402;10.670;2023-12-28T01:26:34;2.47;;;2.37;;
10489;SDS011;35569;48.402;10.670;2023-12-28T01:27:06;2.43;;;2.30;;
10489;SDS011;35569;48.402;10.670;2023-12-28T01:27:41;2.87;;;2.67;;
10489;SDS011;35569;48.402;10.670;2023-12-28T01:28:14;2.40;;;2.30;;
10489;SDS011;35569;48.402;10.670;2023-12-28T01:28:50;3.00;;;2.80;;
10489;SDS011;35569;48.402;10.670;2023-12-28T01:29:22;2.70;;;2.60;;
10489;SDS011;35569;48.402;10.670;2023-12-28T01:29:56;2.63;;;2.53;;
10489;SDS011;35569;48.402;10.670;2023-12-28T01:30:29;2.20;;;2.10;;
10489;SDS011;35569;48.402;10.670;2023-12-28T01:31:07;2.60;;;2.50;;
10489;SDS011;35569;48.402;10.670;2023-12-28T01:31:39;2.30;;;2.20;;
10489;SDS011;35569;48.402;10.670;2023-12-28T01:32:12;2.73;;;2.63;;
10489;SDS011;35569;48.402;10.670;2023-12-28T01:32:44;2.57;;;2.47;;
10489;SDS011;35569;48.402;10.670;2023-12-28T01:33:20;2.50;;;2.50;;
10489;SDS011;35569;48.402;10.670;2023-12-28T01:33:52;2.80;;;2.70;;
10489;SDS011;35569;48.402;10.670;2023-12-28T01:34:25;2.40;;;2.30;;
10489;SDS011;35569;48.402;10.670;2023-12-28T01:34:57;2.63;;;2.43;;
10489;SDS011;35569;48.402;10.670;2023-12-28T01:35:32;2.30;;;2.20;;
10489;SDS011;35569;48.402;10.670;2023-12-28T01:36:14;2.77;;;2.47;;
10489;SDS011;35569;48.402;10.670;2023-12-28T01:36:48;2.00;;;2.00;;
10489;SDS011;35569;48.402;10.670;2023-12-28T01:37:23;2.67;;;2.47;;
10489;SDS011;35569;48.402;10.670;2023-12-28T01:37:55;2.63;;;2.43;;
10489;SDS011;35569;48.402;10.670;2023-12-28T01:38:29;2.83;;;2.70;;
10489;SDS011;35569;48.402;10.670;2023-12-28T01:39:02;3.10;;;2.90;;
10489;SDS011;35569;48.402;10.670;2023-12-28T01:39:37;2.50;;;2.40;;
10489;SDS011;35569;48.402;10.670;2023-12-28T01:40:10;2.40;;;2.30;;
10489;SDS011;35569;48.402;10.670;2023-12-28T01:40:44;2.23;;;2.13;;
10489;SDS011;35569;48.402;10.670;2023-12-28T01:41:16;2.40;;;2.30;;
10489;SDS011;35569;48.402;10.670;2023-12-28T01:41:52;2.37;;;2.27;;
10489;SDS011;35569;48.402;10.670;2023-12-28T01:42:24;2.47;;;2.37;;
10489;SDS011;35569;48.402;10.670;2023-12-28T01:42:59;2.20;;;2.17;;
10489;SDS011;35569;48.402;10.670;2023-12-28T01:43:32;2.40;;;2.30;;
10489;SDS011;35569;48.402;10.670;2023-12-28T01:44:07;2.47;;;2.43;;
10489;SDS011;35569;48.402;10.670;2023-12-28T01:44:40;2.07;;;1.97;;
10489;SDS011;35569;48.402;10.670;2023-12-28T01:45:12;2.10;;;2.00;;
10489;SDS011;35569;48.402;10.670;2023-12-28T01:45:45;2.93;;;2.80;;
10489;SDS011;35569;48.402;10.670;2023-12-28T01:46:20;2.10;;;2.00;;
10489;SDS011;35569;48.402;10.670;2023-12-28T01:46:53;1.97;;;1.97;;
10489;SDS011;35569;48.402;10.670;2023-12-28T01:47:26;2.40;;;2.30;;
10489;SDS011;35569;48.402;10.670;2023-12-28T01:48:01;2.37;;;2.27;;
10489;SDS011;35569;48.402;10.670;2023-12-28T01:48:34;2.43;;;2.33;;
10489;SDS011;35569;48.402;10.670;2023-12-28T01:49:07;2.97;;;2.87;;
10489;SDS011;35569;48.402;10.670;2023-12-28T01:49:40;4.43;;;4.20;;
10489;SDS011;35569;48.402;10.670;2023-12-28T01:50:15;3.30;;;3.10;;
10489;SDS011;35569;48.402;10.670;2023-12-28T01:50:49;4.23;;;4.03;;
10489;SDS011;35569;48.402;10.670;2023-12-28T01:51:22;3.03;;;2.93;;
10489;SDS011;35569;48.402;10.670;2023-12-28T01:51:55;2.70;;;2.60;;
10489;SDS011;35569;48.402;10.670;2023-12-28T01:52:28;2.43;;;2.33;;
10489;SDS011;35569;48.402;10.670;2023-12-28T01:53:03;2.70;;;2.60;;
10489;SDS011;35569;48.402;10.670;2023-12-28T01:53:36;2.10;;;2.10;;
10489;SDS011;35569;48.402;10.670;2023-12-28T01:54:08;2.13;;;2.13;;
10489;SDS011;35569;48.402;10.670;2023-12-28T01:54:41;1.97;;;1.87;;
10489;SDS011;35569;48.402;10.670;2023-12-28T01:55:18;2.40;;;2.30;;
10489;SDS011;35569;48.402;10.670;2023-12-28T01:55:52;6.73;;;2.07;;
10489;SDS011;35569;48.402;10.670;2023-12-28T01:56:25;1.87;;;1.77;;
10489;SDS011;35569;48.402;10.670;2023-12-28T01:57:01;2.40;;;2.30;;
10489;SDS011;35569;48.402;10.670;2023-12-28T01:57:35;2.33;;;2.23;;
10489;SDS011;35569;48.402;10.670;2023-12-28T01:58:10;2.30;;;2.20;;
10489;SDS011;35569;48.402;10.670;2023-12-28T01:58:44;2.20;;;2.10;;
10489;SDS011;35569;48.402;10.670;2023-12-28T01:59:21;2.30;;;2.20;;
10489;SDS011;35569;48.402;10.670;2023-12-28T01:59:53;1.90;;;1.90;;
10489;SDS011;35569;48.402;10.670;2023-12-28T02:00:26;2.20;;;2.10;;
10489;SDS011;35569;48.402;10.670;2023-12-28T02:00:59;2.53;;;2.33;;
10489;SDS011;35569;48.402;10.670;2023-12-28T02:01:32;2.47;;;2.37;;
10489;SDS011;35569;48.402;10.670;2023-12-28T02:02:07;1.90;;;1.80;;
10489;SDS011;35569;48.402;10.670;2023-12-28T02:02:40;2.00;;;2.00;;
10489;SDS011;35569;48.402;10.670;2023-12-28T02:03:13;1.97;;;1.87;;
10489;SDS011;35569;48.402;10.670;2023-12-28T02:03:46;2.20;;;2.10;;
10489;SDS011;35569;48.402;10.670;2023-12-28T02:04:19;2.37;;;2.27;;
10489;SDS011;35569;48.402;10.670;2023-12-28T02:05:00;2.33;;;2.23;;
10489;SDS011;35569;48.402;10.670;2023-12-28T02:05:33;2.23;;;2.13;;
10489;SDS011;35569;48.402;10.670;2023-12-28T02:06:06;2.27;;;2.17;;
10489;SDS011;35569;48.402;10.670;2023-12-28T02:06:42;1.80;;;1.80;;
10489;SDS011;35569;48.402;10.670;2023-12-28T02:07:14;1.93;;;1.87;;
10489;SDS011;35569;48.402;10.670;2023-12-28T02:07:47;2.30;;;2.20;;
10489;SDS011;35569;48.402;10.670;2023-12-28T02:08:20;1.83;;;1.83;;
10489;SDS011;35569;48.402;10.670;2023-12-28T02:08:52;2.07;;;1.97;;
10489;SDS011;35569;48.402;10.670;2023-12-28T02:09:27;2.50;;;2.40;;
10489;SDS011;35569;48.402;10.670;2023-12-28T02:10:00;2.20;;;2.20;;
10489;SDS011;35569;48.402;10.670;2023-12-28T02:10:32;2.40;;;1.90;;
10489;SDS011;35569;48.402;10.670;2023-12-28T02:11:07;2.10;;;2.10;;
10489;SDS011;35569;48.402;10.670;2023-12-28T02:11:40;2.27;;;2.17;;
10489;SDS011;35569;48.402;10.670;2023-12-28T02:12:13;1.83;;;1.83;;
10489;SDS011;35569;48.402;10.670;2023-12-28T02:12:45;2.63;;;2.43;;
10489;SDS011;35569;48.402;10.670;2023-12-28T02:13:24;2.07;;;1.97;;
10489;SDS011;35569;48.402;10.670;2023-12-28T02:13:57;1.90;;;1.90;;
10489;SDS011;35569;48.402;10.670;2023-12-28T02:14:29;1.90;;;1.80;;
10489;SDS011;35569;48.402;10.670;2023-12-28T02:15:02;2.07;;;1.97;;
10489;SDS011;35569;48.402;10.670;2023-12-28T02:15:35;2.10;;;2.00;;
10489;SDS011;35569;48.402;10.670;2023-12-28T02:16:11;2.57;;;2.47;;
10489;SDS011;35569;48.402;10.670;2023-12-28T02:16:46;2.17;;;2.07;;
10489;SDS011;35569;48.402;10.670;2023-12-28T02:17:22;2.17;;;2.07;;
10489;SDS011;35569;48.402;10.670;2023-12-28T02:17:58;1.80;;;1.80;;
10489;SDS011;35569;48.402;10.670;2023-12-28T02:18:37;2.13;;;2.03;;
10489;SDS011;35569;48.402;10.670;2023-12-28T02:19:13;1.90;;;1.90;;
10489;SDS011;35569;48.402;10.670;2023-12-28T02:19:50;2.30;;;2.30;;
10489;SDS011;35569;48.402;10.670;2023-12-28T02:20:22;2.00;;;2.00;;
10489;SDS011;35569;48.402;10.670;2023-12-28T02:20:58;2.40;;;2.30;;
10489;SDS011;35569;48.402;10.670;2023-12-28T02:21:32;2.70;;;2.60;;
10489;SDS011;35569;48.402;10.670;2023-12-28T02:22:08;2.40;;;2.30;;
10489;SDS011;35569;48.402;10.670;2023-12-28T02:22:42;2.83;;;2.63;;
10489;SDS011;35569;48.402;10.670;2023-12-28T02:23:17;2.20;;;2.20;;
10489;SDS011;35569;48.402;10.670;2023-12-28T02:23:49;2.17;;;2.07;;
10489;SDS011;35569;48.402;10.670;2023-12-28T02:24:22;2.70;;;2.60;;
10489;SDS011;35569;48.402;10.670;2023-12-28T02:25:47;2.80;;;2.70;;
10489;SDS011;35569;48.402;10.670;2023-12-28T02:26:19;2.90;;;2.80;;
10489;SDS011;35569;48.402;10.670;2023-12-28T02:26:51;2.77;;;2.67;;
10489;SDS011;35569;48.402;10.670;2023-12-28T02:27:24;2.50;;;2.40;;
10489;SDS011;35569;48.402;10.670;2023-12-28T02:27:57;2.33;;;2.30;;
10489;SDS011;35569;48.402;10.670;2023-12-28T02:28:32;2.60;;;2.40;;
10489;SDS011;35569;48.402;10.670;2023-12-28T02:29:05;2.17;;;2.17;;
10489;SDS011;35569;48.402;10.670;2023-12-28T02:29:38;3.10;;;2.90;;
10489;SDS011;35569;48.402;10.670;2023-12-28T02:30:11;3.00;;;2.10;;
10489;SDS011;35569;48.402;10.670;2023-12-28T02:30:47;2.70;;;2.60;;
10489;SDS011;35569;48.402;10.670;2023-12-28T02:31:21;2.33;;;2.23;;
10489;SDS011;35569;48.402;10.670;2023-12-28T02:31:59;2.53;;;2.53;;
10489;SDS011;35569;48.402;10.670;2023-12-28T02:32:35;2.63;;;2.53;;
10489;SDS011;35569;48.402;10.670;2023-12-28T02:33:15;2.70;;;2.50;;
10489;SDS011;35569;48.402;10.670;2023-12-28T02:33:56;2.43;;;2.33;;
10489;SDS011;35569;48.402;10.670;2023-12-28T02:34:32;2.27;;;2.17;;
10489;SDS011;35569;48.402;10.670;2023-12-28T02:35:09;2.07;;;2.00;;
10489;SDS011;35569;48.402;10.670;2023-12-28T02:35:50;2.50;;;2.40;;
10489;SDS011;35569;48.402;10.670;2023-12-28T02:36:27;2.37;;;2.17;;
10489;SDS011;35569;48.402;10.670;2023-12-28T02:37:00;2.97;;;2.77;;
10489;SDS011;35569;48.402;10.670;2023-12-28T02:37:33;2.00;;;2.00;;
10489;SDS011;35569;48.402;10.670;2023-12-28T02:38:08;2.53;;;2.43;;
10489;SDS011;35569;48.402;10.670;2023-12-28T02:38:44;2.03;;;1.90;;
10489;SDS011;35569;48.402;10.670;2023-12-28T02:39:17;1.77;;;1.67;;
10489;SDS011;35569;48.402;10.670;2023-12-28T02:39:50;2.50;;;2.30;;
10489;SDS011;35569;48.402;10.670;2023-12-28T02:40:27;2.27;;;2.17;;
10489;SDS011;35569;48.402;10.670;2023-12-28T02:41:02;2.13;;;2.03;;
10489;SDS011;35569;48.402;10.670;2023-12-28T02:41:35;2.00;;;1.90;;
10489;SDS011;35569;48.402;10.670;2023-12-28T02:42:08;2.20;;;2.20;;
10489;SDS011;35569;48.402;10.670;2023-12-28T02:42:40;2.43;;;2.30;;
10489;SDS011;35569;48.402;10.670;2023-12-28T02:43:17;3.33;;;2.10;;
10489;SDS011;35569;48.402;10.670;2023-12-28T02:43:50;1.80;;;1.70;;
10489;SDS011;35569;48.402;10.670;2023-12-28T02:44:23;1.77;;;1.77;;
10489;SDS011;35569;48.402;10.670;2023-12-28T02:44:58;4.73;;;2.60;;
10489;SDS011;35569;48.402;10.670;2023-12-28T02:45:30;2.00;;;1.90;;
10489;SDS011;35569;48.402;10.670;2023-12-28T02:46:03;2.17;;;2.07;;
10489;SDS011;35569;48.402;10.670;2023-12-28T02:46:35;1.90;;;1.90;;
10489;SDS011;35569;48.402;10.670;2023-12-28T02:47:10;2.30;;;2.20;;
10489;SDS011;35569;48.402;10.670;2023-12-28T02:47:43;2.57;;;2.40;;
10489;SDS011;35569;48.402;10.670;2023-12-28T02:48:16;2.20;;;2.20;;
10489;SDS011;35569;48.402;10.670;2023-12-28T02:48:49;2.40;;;2.03;;
10489;SDS011;35569;48.402;10.670;2023-12-28T02:49:29;2.00;;;1.90;;
10489;SDS011;35569;48.402;10.670;2023-12-28T02:50:02;1.63;;;1.63;;
10489;SDS011;35569;48.402;10.670;2023-12-28T02:50:35;2.17;;;2.07;;
10489;SDS011;35569;48.402;10.670;2023-12-28T02:51:10;1.70;;;1.70;;
10489;SDS011;35569;48.402;10.670;2023-12-28T02:51:42;2.13;;;2.10;;
10489;SDS011;35569;48.402;10.670;2023-12-28T02:52:15;1.90;;;1.80;;
10489;SDS011;35569;48.402;10.670;2023-12-28T02:52:47;2.13;;;2.03;;
10489;SDS011;35569;48.402;10.670;2023-12-28T02:53:22;2.13;;;2.03;;
10489;SDS011;35569;48.402;10.670;2023-12-28T02:53:55;1.70;;;1.70;;
10489;SDS011;35569;48.402;10.670;2023-12-28T02:54:27;1.80;;;1.80;;
10489;SDS011;35569;48.402;10.670;2023-12-28T02:55:00;3.73;;;2.00;;
10489;SDS011;35569;48.402;10.670;2023-12-28T02:55:38;2.43;;;2.23;;
10489;SDS011;35569;48.402;10.670;2023-12-28T02:56:10;1.77;;;1.77;;
10489;SDS011;35569;48.402;10.670;2023-12-28T02:56:43;2.13;;;1.90;;
10489;SDS011;35569;48.402;10.670;2023-12-28T02:57:15;1.80;;;1.70;;
10489;SDS011;35569;48.402;10.670;2023-12-28T02:57:51;1.90;;;1.80;;
10489;SDS011;35569;48.402;10.670;2023-12-28T02:58:27;2.03;;;1.93;;
10489;SDS011;35569;48.402;10.670;2023-12-28T02:58:59;1.93;;;1.83;;
10489;SDS011;35569;48.402;10.670;2023-12-28T02:59:34;1.63;;;1.63;;
10489;SDS011;35569;48.402;10.670;2023-12-28T03:00:07;1.90;;;1.80;;
10489;SDS011;35569;48.402;10.670;2023-12-28T03:00:40;2.17;;;2.07;;
10489;SDS011;35569;48.402;10.670;2023-12-28T03:01:13;2.00;;;1.90;;
10489;SDS011;35569;48.402;10.670;2023-12-28T03:01:48;1.90;;;1.90;;
10489;SDS011;35569;48.402;10.670;2023-12-28T03:02:22;1.70;;;1.60;;
10489;SDS011;35569;48.402;10.670;2023-12-28T03:02:55;2.37;;;1.90;;
10489;SDS011;35569;48.402;10.670;2023-12-28T03:03:31;1.90;;;1.90;;
10489;SDS011;35569;48.402;10.670;2023-12-28T03:04:04;1.60;;;1.60;;
10489;SDS011;35569;48.402;10.670;2023-12-28T03:04:36;1.97;;;1.87;;
10489;SDS011;35569;48.402;10.670;2023-12-28T03:05:09;1.80;;;1.70;;
10489;SDS011;35569;48.402;10.670;2023-12-28T03:05:41;1.90;;;1.90;;
10489;SDS011;35569;48.402;10.670;2023-12-28T03:06:17;2.13;;;2.03;;
10489;SDS011;35569;48.402;10.670;2023-12-28T03:06:50;1.80;;;1.80;;
10489;SDS011;35569;48.402;10.670;2023-12-28T03:07:22;1.90;;;1.80;;
10489;SDS011;35569;48.402;10.670;2023-12-28T03:07:55;1.60;;;1.60;;
10489;SDS011;35569;48.402;10.670;2023-12-28T03:08:30;1.90;;;1.80;;
10489;SDS011;35569;48.402;10.670;2023-12-28T03:09:03;2.00;;;1.90;;
10489;SDS011;35569;48.402;10.670;2023-12-28T03:09:37;2.03;;;1.93;;
10489;SDS011;35569;48.402;10.670;2023-12-28T03:10:10;1.93;;;1.87;;
10489;SDS011;35569;48.402;10.670;2023-12-28T03:10:48;1.70;;;1.60;;
10489;SDS011;35569;48.402;10.670;2023-12-28T03:11:20;1.70;;;1.60;;
10489;SDS011;35569;48.402;10.670;2023-12-28T03:11:53;2.03;;;1.80;;
10489;SDS011;35569;48.402;10.670;2023-12-28T03:12:28;2.03;;;1.93;;
10489;SDS011;35569;48.402;10.670;2023-12-28T03:13:00;1.47;;;1.47;;
10489;SDS011;35569;48.402;10.670;2023-12-28T03:13:33;1.50;;;1.40;;
10489;SDS011;35569;48.402;10.670;2023-12-28T03:14:06;2.00;;;1.90;;
10489;SDS011;35569;48.402;10.670;2023-12-28T03:14:38;1.87;;;1.80;;
10489;SDS011;35569;48.402;10.670;2023-12-28T03:15:13;1.63;;;1.57;;
10489;SDS011;35569;48.402;10.670;2023-12-28T03:15:47;1.63;;;1.53;;
10489;SDS011;35569;48.402;10.670;2023-12-28T03:16:19;1.50;;;1.50;;
10489;SDS011;35569;48.402;10.670;2023-12-28T03:16:52;1.80;;;1.80;;
10489;SDS011;35569;48.402;10.670;2023-12-28T03:17:24;1.60;;;1.60;;
10489;SDS011;35569;48.402;10.670;2023-12-28T03:18:00;1.87;;;1.77;;
10489;SDS011;35569;48.402;10.670;2023-12-28T03:18:34;1.80;;;1.70;;
10489;SDS011;35569;48.402;10.670;2023-12-28T03:19:07;1.67;;;1.67;;
10489;SDS011;35569;48.402;10.670;2023-12-28T03:19:39;1.60;;;1.60;;
10489;SDS011;35569;48.402;10.670;2023-12-28T03:20:14;1.67;;;1.67;;
10489;SDS011;35569;48.402;10.670;2023-12-28T03:20:47;1.47;;;1.47;;
10489;SDS011;35569;48.402;10.670;2023-12-28T03:21:20;1.80;;;1.70;;